createdAt,value
2023-05-02T00:01:54.080Z,100445.59
2023-05-02T00:04:22.593Z,100443.09
2023-05-02T00:06:51.935Z,100444.52
2023-05-02T00:09:20.360Z,100444.06
2023-05-02T00:11:48.023Z,100445.30
2023-05-02T00:14:15.805Z,100448.91
2023-05-02T00:16:43.859Z,100452.13
2023-05-02T00:19:11.722Z,100454.95
2023-05-02T00:21:39.491Z,100457.14
2023-05-02T00:24:07.880Z,100457.11
2023-05-02T00:26:35.863Z,100462.00
2023-05-02T00:29:03.724Z,100461.62
2023-05-02T00:31:31.586Z,100460.33
2023-05-02T00:33:59.473Z,100461.86
2023-05-02T00:36:27.621Z,100464.16
2023-05-02T00:38:55.661Z,100465.02
2023-05-02T00:41:23.553Z,100468.74
2023-05-02T00:43:51.341Z,100464.46
2023-05-02T00:46:19.226Z,100465.39
2023-05-02T00:48:47.364Z,100466.65
2023-05-02T00:51:15.254Z,100467.13
2023-05-02T00:53:43.532Z,100470.55
2023-05-02T00:56:11.686Z,100471.70
2023-05-02T00:58:40.864Z,100475.42
2023-05-02T01:01:27.899Z,100478.25
2023-05-02T01:04:21.875Z,100477.37
2023-05-02T01:06:53.040Z,100480.19
2023-05-02T01:09:21.136Z,100480.59
2023-05-02T01:11:52.069Z,100480.92
2023-05-02T01:14:21.638Z,100478.36
2023-05-02T01:16:50.257Z,100480.48
2023-05-02T01:19:31.618Z,100479.23
2023-05-02T01:22:01.986Z,100482.14
2023-05-02T01:24:32.894Z,100480.37
2023-05-02T01:27:22.592Z,100480.33
2023-05-02T01:29:51.949Z,100479.56
2023-05-02T01:32:22.091Z,100483.76
2023-05-02T01:34:50.371Z,100484.45
2023-05-02T01:37:18.935Z,100486.04
2023-05-02T01:39:47.332Z,100481.02
2023-05-02T01:42:16.735Z,100484.64
2023-05-02T01:44:45.204Z,100487.34
2023-05-02T01:47:13.887Z,100486.91
2023-05-02T01:49:42.736Z,100484.92
2023-05-02T01:52:11.980Z,100486.04
2023-05-02T01:54:40.857Z,100486.74
2023-05-02T01:57:10.696Z,100486.59
2023-05-02T01:59:40.998Z,100487.84
2023-05-02T02:02:11.217Z,100489.29
2023-05-02T02:04:40.622Z,100486.50
2023-05-02T02:07:13.012Z,100484.68
2023-05-02T02:09:41.609Z,100486.89
2023-05-02T02:12:16.370Z,100485.48
2023-05-02T02:14:48.490Z,100485.13
2023-05-02T02:17:22.494Z,100486.98
2023-05-02T02:19:52.733Z,100485.90
2023-05-02T02:22:21.748Z,100488.61
2023-05-02T02:24:52.440Z,100484.42
2023-05-02T02:27:22.153Z,100482.27
2023-05-02T02:29:50.093Z,100480.34
2023-05-02T02:32:18.202Z,100478.81
2023-05-02T02:34:46.102Z,100476.45
2023-05-02T02:37:19.066Z,100473.52
2023-05-02T02:39:48.301Z,100478.30
2023-05-02T02:42:23.495Z,100476.00
2023-05-02T02:45:08.267Z,100479.50
2023-05-02T02:47:44.395Z,100478.77
2023-05-02T02:50:20.091Z,100479.77
2023-05-02T02:53:08.764Z,100479.27
2023-05-02T02:55:39.625Z,100481.69
2023-05-02T02:58:19.257Z,100481.73
2023-05-02T03:00:47.576Z,100482.69
2023-05-02T03:03:15.936Z,100483.83
2023-05-02T03:05:44.534Z,100482.12
2023-05-02T03:08:14.002Z,100479.07
2023-05-02T03:10:42.242Z,100481.27
2023-05-02T03:13:11.159Z,100479.80
2023-05-02T03:15:54.031Z,100477.10
2023-05-02T03:18:25.286Z,100483.62
2023-05-02T03:20:54.045Z,100482.33
2023-05-02T03:23:22.043Z,100481.11
2023-05-02T03:25:53.302Z,100482.59
2023-05-02T03:28:21.531Z,100483.83
2023-05-02T03:30:50.337Z,100480.60
2023-05-02T03:33:18.174Z,100485.10
2023-05-02T03:35:46.431Z,100487.70
2023-05-02T03:38:14.640Z,100487.91
2023-05-02T03:40:43.878Z,100488.11
2023-05-02T03:43:12.152Z,100489.17
2023-05-02T03:45:40.701Z,100490.08
2023-05-02T03:48:09.008Z,100495.66
2023-05-02T03:50:38.111Z,100498.79
2023-05-02T03:53:08.273Z,100500.70
2023-05-02T03:55:41.165Z,100504.95
2023-05-02T03:58:10.857Z,100507.62
2023-05-02T04:00:39.003Z,100507.69
2023-05-02T04:03:07.427Z,100508.31
2023-05-02T04:05:36.603Z,100510.58
2023-05-02T04:08:04.953Z,100516.59
2023-05-02T04:10:33.101Z,100516.33
2023-05-02T04:13:03.940Z,100517.27
2023-05-02T04:15:33.460Z,100514.91
2023-05-02T04:18:01.551Z,100515.73
2023-05-02T04:20:30.882Z,100517.26
2023-05-02T04:22:59.215Z,100516.22
2023-05-02T04:25:27.613Z,100513.23
2023-05-02T04:27:57.254Z,100512.41
2023-05-02T04:30:26.261Z,100514.39
2023-05-02T04:33:08.143Z,100512.35
2023-05-02T04:35:39.927Z,100513.30
2023-05-02T04:38:08.635Z,100518.29
2023-05-02T04:40:37.134Z,100519.70
2023-05-02T04:43:07.650Z,100523.21
2023-05-02T04:45:46.868Z,100525.98
2023-05-02T04:48:21.993Z,100526.17
2023-05-02T04:50:49.839Z,100529.34
2023-05-02T04:53:17.539Z,100536.51
2023-05-02T04:55:45.560Z,100532.11
2023-05-02T04:58:13.686Z,100526.90
2023-05-02T05:00:42.366Z,100524.30
2023-05-02T05:03:10.261Z,100523.25
2023-05-02T05:05:38.726Z,100528.39
2023-05-02T05:08:08.911Z,100524.71
2023-05-02T05:10:38.290Z,100528.21
2023-05-02T05:13:06.634Z,100530.31
2023-05-02T05:15:35.132Z,100530.39
2023-05-02T05:18:03.981Z,100526.58
2023-05-02T05:20:31.821Z,100528.67
2023-05-02T05:23:01.439Z,100528.69
2023-05-02T05:25:30.041Z,100531.75
2023-05-02T05:27:59.979Z,100535.36
2023-05-02T05:30:28.177Z,100535.23
2023-05-02T05:32:57.212Z,100538.35
2023-05-02T05:35:25.518Z,100542.65
2023-05-02T05:37:53.907Z,100546.89
2023-05-02T05:40:22.090Z,100548.45
2023-05-02T05:42:55.070Z,100545.89
2023-05-02T05:45:27.679Z,100550.98
2023-05-02T05:47:55.985Z,100551.34
2023-05-02T05:50:26.053Z,100548.06
2023-05-02T05:52:53.986Z,100542.73
2023-05-02T05:55:21.958Z,100543.55
2023-05-02T05:57:49.830Z,100543.67
2023-05-02T06:00:17.789Z,100544.80
2023-05-02T06:02:47.501Z,100546.40
2023-05-02T06:05:24.710Z,100548.23
2023-05-02T06:07:53.434Z,100545.71
2023-05-02T06:10:21.246Z,100542.00
2023-05-02T06:12:49.563Z,100544.23
2023-05-02T06:15:19.410Z,100544.25
2023-05-02T06:17:47.344Z,100544.14
2023-05-02T06:20:17.451Z,100545.17
2023-05-02T06:22:46.886Z,100546.42
2023-05-02T06:25:14.777Z,100547.39
2023-05-02T06:27:42.529Z,100549.86
2023-05-02T06:30:10.443Z,100545.39
2023-05-02T06:32:38.300Z,100545.06
2023-05-02T06:35:06.844Z,100542.86
2023-05-02T06:37:37.795Z,100542.96
2023-05-02T06:40:05.825Z,100542.55
2023-05-02T06:42:33.661Z,100543.13
2023-05-02T06:45:01.575Z,100543.30
2023-05-02T06:47:29.603Z,100540.95
2023-05-02T06:49:57.560Z,100539.29
2023-05-02T06:52:25.598Z,100541.00
2023-05-02T06:54:53.391Z,100538.42
2023-05-02T06:57:21.635Z,100536.71
2023-05-02T06:59:49.645Z,100534.83
2023-05-02T07:02:17.476Z,100533.27
2023-05-02T07:04:45.842Z,100528.72
2023-05-02T07:07:13.861Z,100530.70
2023-05-02T07:09:41.802Z,100535.57
2023-05-02T07:12:09.585Z,100539.66
2023-05-02T07:14:37.489Z,100537.02
2023-05-02T07:17:05.835Z,100536.98
2023-05-02T07:19:33.951Z,100533.84
2023-05-02T07:22:01.762Z,100532.06
2023-05-02T07:24:30.089Z,100532.21
2023-05-02T07:26:57.854Z,100534.91
2023-05-02T07:29:26.134Z,100529.58
2023-05-02T07:31:54.440Z,100532.39
2023-05-02T07:34:22.373Z,100529.94
2023-05-02T07:36:50.165Z,100529.52
2023-05-02T07:39:17.989Z,100524.40
2023-05-02T07:41:45.999Z,100522.57
2023-05-02T07:44:13.788Z,100523.83
2023-05-02T07:46:42.163Z,100523.95
2023-05-02T07:49:10.314Z,100523.88
2023-05-02T07:51:39.861Z,100527.42
2023-05-02T07:54:17.122Z,100526.83
2023-05-02T07:56:44.963Z,100527.02
2023-05-02T07:59:12.932Z,100530.80
2023-05-02T08:01:41.645Z,100526.09
2023-05-02T08:04:11.262Z,100531.44
2023-05-02T08:06:39.279Z,100533.17
2023-05-02T08:09:07.148Z,100533.69
2023-05-02T08:11:35.489Z,100531.48
2023-05-02T08:14:03.626Z,100533.65
2023-05-02T08:16:31.889Z,100536.09
2023-05-02T08:19:00.048Z,100536.64
2023-05-02T08:21:28.585Z,100538.73
2023-05-02T08:24:02.387Z,100536.01
2023-05-02T08:26:30.175Z,100535.48
2023-05-02T08:28:58.161Z,100534.84
2023-05-02T08:31:26.108Z,100537.93
2023-05-02T08:33:53.842Z,100534.95
2023-05-02T08:36:21.812Z,100531.96
2023-05-02T08:38:49.951Z,100532.19
2023-05-02T08:41:18.572Z,100530.15
2023-05-02T08:43:47.135Z,100531.61
2023-05-02T08:46:16.194Z,100528.64
2023-05-02T08:48:45.919Z,100527.77
2023-05-02T08:51:15.396Z,100529.82
2023-05-02T08:53:43.891Z,100528.96
2023-05-02T08:56:12.781Z,100527.60
2023-05-02T08:58:41.367Z,100524.70
2023-05-02T09:01:16.503Z,100524.32
2023-05-02T09:03:45.697Z,100528.05
2023-05-02T09:06:15.390Z,100524.63
2023-05-02T09:08:50.349Z,100520.09
2023-05-02T09:11:18.442Z,100516.27
2023-05-02T09:13:47.532Z,100513.80
2023-05-02T09:16:16.991Z,100512.11
2023-05-02T09:18:48.483Z,100511.37
2023-05-02T09:21:21.397Z,100512.67
2023-05-02T09:23:50.812Z,100515.89
2023-05-02T09:26:20.426Z,100515.70
2023-05-02T09:28:52.633Z,100511.00
2023-05-02T09:31:43.510Z,100511.58
2023-05-02T09:34:10.680Z,100507.08
2023-05-02T09:36:43.121Z,100509.45
2023-05-02T09:39:13.845Z,100510.85
2023-05-02T09:41:45.310Z,100516.02
2023-05-02T09:44:14.243Z,100515.58
2023-05-02T09:46:43.505Z,100513.96
2023-05-02T09:49:11.957Z,100513.07
2023-05-02T09:51:40.305Z,100512.10
2023-05-02T09:54:08.086Z,100508.89
2023-05-02T09:56:57.040Z,100503.17
2023-05-02T09:59:25.290Z,100504.99
2023-05-02T10:01:57.467Z,100501.45
2023-05-02T10:04:26.022Z,100499.30
2023-05-02T10:06:54.403Z,100497.70
2023-05-02T10:09:22.903Z,100492.59
2023-05-02T10:11:52.053Z,100492.42
2023-05-02T10:14:20.996Z,100487.25
2023-05-02T10:17:07.626Z,100484.83
2023-05-02T10:19:41.708Z,100478.40
2023-05-02T10:22:10.583Z,100477.75
2023-05-02T10:24:39.054Z,100480.02
2023-05-02T10:27:07.683Z,100476.23
2023-05-02T10:29:36.116Z,100475.23
2023-05-02T10:32:05.217Z,100471.76
2023-05-02T10:34:34.147Z,100472.25
2023-05-02T10:37:02.972Z,100470.77
2023-05-02T10:39:32.568Z,100473.29
2023-05-02T10:42:02.302Z,100471.98
2023-05-02T10:44:37.356Z,100466.14
2023-05-02T10:47:25.012Z,100466.70
2023-05-02T10:49:54.505Z,100466.93
2023-05-02T10:52:25.896Z,100463.85
2023-05-02T10:55:13.525Z,100461.27
2023-05-02T10:58:00.051Z,100460.05
2023-05-02T11:00:35.724Z,100462.69
2023-05-02T11:03:03.930Z,100463.57
2023-05-02T11:05:37.196Z,100464.73
2023-05-02T11:08:23.023Z,100467.40
2023-05-02T11:10:51.134Z,100468.44
2023-05-02T11:13:38.865Z,100469.41
2023-05-02T11:16:06.973Z,100466.98
2023-05-02T11:18:53.312Z,100467.98
2023-05-02T11:21:33.117Z,100461.84
2023-05-02T11:24:19.836Z,100457.53
2023-05-02T11:26:47.530Z,100453.73
2023-05-02T11:29:35.392Z,100451.87
2023-05-02T11:32:03.178Z,100449.52
2023-05-02T11:34:39.375Z,100449.23
2023-05-02T11:37:14.135Z,100445.27
2023-05-02T11:39:42.469Z,100450.00
2023-05-02T11:42:10.408Z,100450.69
2023-05-02T11:44:57.155Z,100443.02
2023-05-02T11:47:26.128Z,100441.39
2023-05-02T11:49:57.900Z,100439.70
2023-05-02T11:52:26.529Z,100437.52
2023-05-02T11:54:56.021Z,100435.41
2023-05-02T11:57:24.119Z,100435.98
2023-05-02T11:59:52.914Z,100442.11
2023-05-02T12:02:21.431Z,100442.17
2023-05-02T12:04:49.364Z,100440.61
2023-05-02T12:07:17.303Z,100437.09
2023-05-02T12:09:54.824Z,100434.63
2023-05-02T12:12:22.684Z,100431.08
2023-05-02T12:14:50.826Z,100433.89
2023-05-02T12:17:18.904Z,100436.00
2023-05-02T12:19:46.979Z,100433.94
2023-05-02T12:22:15.660Z,100435.09
2023-05-02T12:24:44.565Z,100427.41
2023-05-02T12:27:13.635Z,100425.60
2023-05-02T12:29:42.468Z,100423.52
2023-05-02T12:32:10.885Z,100419.88
2023-05-02T12:34:39.056Z,100418.38
2023-05-02T12:37:07.855Z,100419.52
2023-05-02T12:39:35.937Z,100416.09
2023-05-02T12:42:13.575Z,100414.42
2023-05-02T12:44:45.792Z,100415.83
2023-05-02T12:47:15.284Z,100412.40
2023-05-02T12:49:49.873Z,100413.52
2023-05-02T12:52:18.649Z,100413.08
2023-05-02T12:54:47.266Z,100412.61
2023-05-02T12:57:32.994Z,100407.92
2023-05-02T13:00:01.136Z,100410.02
2023-05-02T13:02:29.581Z,100405.11
2023-05-02T13:04:57.780Z,100402.97
2023-05-02T13:07:25.587Z,100403.79
2023-05-02T13:09:53.345Z,100404.48
2023-05-02T13:12:21.569Z,100403.80
2023-05-02T13:14:50.494Z,100401.45
2023-05-02T13:17:18.535Z,100399.61
2023-05-02T13:19:57.870Z,100395.33
2023-05-02T13:22:29.177Z,100398.46
2023-05-02T13:24:57.418Z,100394.63
2023-05-02T13:27:25.772Z,100391.67
2023-05-02T13:29:53.944Z,100388.64
2023-05-02T13:32:21.913Z,100388.98
2023-05-02T13:34:50.069Z,100390.64
2023-05-02T13:37:18.249Z,100386.15
2023-05-02T13:39:46.096Z,100386.30
2023-05-02T13:42:13.879Z,100386.23
2023-05-02T13:44:42.266Z,100391.47
2023-05-02T13:47:10.140Z,100389.29
2023-05-02T13:49:38.044Z,100387.73
2023-05-02T13:52:05.850Z,100387.07
2023-05-02T13:54:33.703Z,100383.02
2023-05-02T13:57:02.777Z,100380.73
2023-05-02T13:59:30.896Z,100378.83
2023-05-02T14:01:58.695Z,100377.77
2023-05-02T14:04:26.515Z,100377.52
2023-05-02T14:06:54.440Z,100377.05
2023-05-02T14:09:22.290Z,100374.84
2023-05-02T14:11:50.258Z,100376.70
2023-05-02T14:14:18.510Z,100373.66
2023-05-02T14:16:47.650Z,100373.77
2023-05-02T14:19:18.068Z,100371.55
2023-05-02T14:21:46.158Z,100371.34
2023-05-02T14:24:16.363Z,100372.74
2023-05-02T14:26:44.191Z,100369.39
2023-05-02T14:29:12.183Z,100370.63
2023-05-02T14:31:40.007Z,100367.65
2023-05-02T14:34:09.087Z,100363.95
2023-05-02T14:36:37.209Z,100372.86
2023-05-02T14:39:05.130Z,100367.37
2023-05-02T14:41:32.894Z,100365.45
2023-05-02T14:44:00.741Z,100369.08
2023-05-02T14:46:28.660Z,100365.95
2023-05-02T14:48:56.828Z,100364.80
2023-05-02T14:51:24.708Z,100360.26
2023-05-02T14:53:52.868Z,100370.23
2023-05-02T14:56:20.900Z,100370.84
2023-05-02T14:58:48.580Z,100370.63
2023-05-02T15:01:18.206Z,100371.45
2023-05-02T15:04:04.310Z,100368.69
2023-05-02T15:06:34.413Z,100368.73
2023-05-02T15:09:02.640Z,100368.98
2023-05-02T15:11:30.526Z,100371.27
2023-05-02T15:13:59.393Z,100366.21
2023-05-02T15:16:27.725Z,100369.09
2023-05-02T15:18:55.696Z,100368.64
2023-05-02T15:21:23.424Z,100363.48
2023-05-02T15:23:51.448Z,100362.52
2023-05-02T15:26:19.399Z,100361.23
2023-05-02T15:28:47.309Z,100358.77
2023-05-02T15:31:15.391Z,100358.28
2023-05-02T15:33:43.827Z,100359.92
2023-05-02T15:36:11.680Z,100358.85
2023-05-02T15:38:42.354Z,100359.00
2023-05-02T15:41:11.311Z,100358.41
2023-05-02T15:43:39.307Z,100355.48
2023-05-02T15:46:07.145Z,100359.83
2023-05-02T15:48:35.338Z,100356.15
2023-05-02T15:51:05.377Z,100356.11
2023-05-02T15:53:34.679Z,100355.98
2023-05-02T15:56:02.425Z,100353.98
2023-05-02T15:58:30.247Z,100353.75
2023-05-02T16:00:58.067Z,100353.77
2023-05-02T16:03:26.777Z,100353.94
2023-05-02T16:05:56.145Z,100354.21
2023-05-02T16:08:23.984Z,100354.05
2023-05-02T16:10:51.800Z,100348.83
2023-05-02T16:13:19.807Z,100349.91
2023-05-02T16:15:52.960Z,100349.35
2023-05-02T16:18:20.908Z,100346.30
2023-05-02T16:20:50.086Z,100344.94
2023-05-02T16:23:18.114Z,100344.80
2023-05-02T16:25:45.932Z,100345.52
2023-05-02T16:28:13.780Z,100340.52
2023-05-02T16:30:41.923Z,100336.61
2023-05-02T16:33:09.911Z,100334.80
2023-05-02T16:35:37.787Z,100339.43
2023-05-02T16:38:06.274Z,100337.09
2023-05-02T16:40:34.171Z,100337.48
2023-05-02T16:43:02.044Z,100333.24
2023-05-02T16:45:30.097Z,100331.58
2023-05-02T16:47:58.053Z,100328.94
2023-05-02T16:50:25.955Z,100328.97
2023-05-02T16:52:53.812Z,100330.42
2023-05-02T16:55:21.736Z,100327.44
2023-05-02T16:57:49.602Z,100332.46
2023-05-02T17:00:17.943Z,100335.40
2023-05-02T17:02:46.835Z,100337.63
2023-05-02T17:05:15.842Z,100338.06
2023-05-02T17:07:43.663Z,100337.59
2023-05-02T17:10:12.445Z,100337.51
2023-05-02T17:12:40.304Z,100341.48
2023-05-02T17:15:08.740Z,100341.27
2023-05-02T17:17:36.604Z,100345.73
2023-05-02T17:20:06.682Z,100344.13
2023-05-02T17:22:35.967Z,100338.02
2023-05-02T17:25:07.295Z,100341.16
2023-05-02T17:27:35.940Z,100345.42
2023-05-02T17:30:05.813Z,100351.02
2023-05-02T17:32:34.979Z,100351.86
2023-05-02T17:35:03.116Z,100349.52
2023-05-02T17:37:31.066Z,100350.34
2023-05-02T17:40:01.127Z,100351.95
2023-05-02T17:42:29.419Z,100350.09
2023-05-02T17:44:57.204Z,100351.24
2023-05-02T17:47:25.713Z,100354.55
2023-05-02T17:49:54.183Z,100357.63
2023-05-02T17:52:22.365Z,100357.77
2023-05-02T17:54:52.758Z,100361.41
2023-05-02T17:57:20.722Z,100360.88
2023-05-02T17:59:50.594Z,100355.98
2023-05-02T18:02:18.432Z,100358.34
2023-05-02T18:04:46.308Z,100359.68
2023-05-02T18:07:14.157Z,100364.11
2023-05-02T18:09:41.912Z,100365.17
2023-05-02T18:12:09.841Z,100366.77
2023-05-02T18:14:37.992Z,100372.84
2023-05-02T18:17:08.321Z,100372.59
2023-05-02T18:19:37.774Z,100374.16
2023-05-02T18:22:06.120Z,100378.61
2023-05-02T18:24:34.114Z,100385.44
2023-05-02T18:27:05.803Z,100386.56
2023-05-02T18:29:36.913Z,100387.30
2023-05-02T18:32:04.866Z,100387.85
2023-05-02T18:34:32.824Z,100388.19
2023-05-02T18:37:04.176Z,100389.07
2023-05-02T18:39:32.917Z,100391.86
2023-05-02T18:42:08.497Z,100395.36
2023-05-02T18:44:36.298Z,100395.98
2023-05-02T18:47:07.825Z,100401.48
2023-05-02T18:49:37.852Z,100403.52
2023-05-02T18:52:05.658Z,100405.25
2023-05-02T18:54:33.682Z,100406.06
2023-05-02T18:57:02.803Z,100406.90
2023-05-02T18:59:30.646Z,100409.20
2023-05-02T19:01:59.799Z,100411.20
2023-05-02T19:04:33.161Z,100416.35
2023-05-02T19:07:02.069Z,100418.27
2023-05-02T19:09:29.939Z,100422.29
2023-05-02T19:11:58.010Z,100426.59
2023-05-02T19:14:26.972Z,100428.77
2023-05-02T19:16:54.743Z,100431.70
2023-05-02T19:19:22.647Z,100434.83
2023-05-02T19:21:53.904Z,100438.42
2023-05-02T19:24:21.812Z,100437.22
2023-05-02T19:26:49.821Z,100440.23
2023-05-02T19:29:17.588Z,100441.46
2023-05-02T19:31:46.395Z,100449.14
2023-05-02T19:34:14.485Z,100456.45
2023-05-02T19:36:42.250Z,100457.38
2023-05-02T19:39:13.257Z,100459.56
2023-05-02T19:41:42.927Z,100461.44
2023-05-02T19:44:10.884Z,100457.73
2023-05-02T19:46:38.624Z,100459.70
2023-05-02T19:49:06.683Z,100466.33
2023-05-02T19:51:35.369Z,100463.02
2023-05-02T19:54:03.110Z,100463.16
2023-05-02T19:56:31.102Z,100461.02
2023-05-02T19:58:59.577Z,100457.24
2023-05-02T20:01:29.577Z,100459.61
2023-05-02T20:03:58.463Z,100454.63
2023-05-02T20:06:28.284Z,100453.85
2023-05-02T20:08:58.669Z,100453.38
2023-05-02T20:11:26.801Z,100458.84
2023-05-02T20:13:54.582Z,100463.25
2023-05-02T20:16:22.725Z,100464.93
2023-05-02T20:18:51.222Z,100466.50
2023-05-02T20:21:19.359Z,100470.33
2023-05-02T20:23:47.475Z,100471.92
2023-05-02T20:26:18.113Z,100473.77
2023-05-02T20:28:45.846Z,100480.63
2023-05-02T20:31:13.814Z,100479.68
2023-05-02T20:33:45.021Z,100481.42
2023-05-02T20:36:15.126Z,100485.64
2023-05-02T20:38:44.559Z,100487.52
2023-05-02T20:41:13.942Z,100486.27
2023-05-02T20:43:45.237Z,100486.83
2023-05-02T20:46:16.423Z,100487.66
2023-05-02T20:48:44.496Z,100486.18
2023-05-02T20:51:12.982Z,100487.69
2023-05-02T20:53:40.828Z,100490.33
2023-05-02T20:56:08.602Z,100489.81
2023-05-02T20:58:36.827Z,100493.73
2023-05-02T21:01:04.749Z,100498.55
2023-05-02T21:03:36.773Z,100499.17
2023-05-02T21:06:04.835Z,100498.59
2023-05-02T21:08:32.760Z,100500.31
2023-05-02T21:11:01.127Z,100503.11
2023-05-02T21:13:29.258Z,100503.02
2023-05-02T21:15:57.228Z,100502.02
2023-05-02T21:18:25.022Z,100503.45
2023-05-02T21:20:52.857Z,100504.10
2023-05-02T21:23:21.115Z,100505.86
2023-05-02T21:25:49.077Z,100509.17
2023-05-02T21:28:17.081Z,100509.79
2023-05-02T21:30:44.920Z,100513.74
2023-05-02T21:33:15.147Z,100515.39
2023-05-02T21:35:43.466Z,100515.64
2023-05-02T21:38:11.266Z,100519.43
2023-05-02T21:40:39.294Z,100520.45
2023-05-02T21:43:07.262Z,100521.23
2023-05-02T21:45:42.998Z,100522.14
2023-05-02T21:48:10.945Z,100525.48
2023-05-02T21:50:40.295Z,100526.30
2023-05-02T21:53:08.900Z,100528.02
2023-05-02T21:55:37.657Z,100533.54
2023-05-02T21:58:06.532Z,100533.05
2023-05-02T22:00:35.107Z,100537.05
2023-05-02T22:03:07.735Z,100539.92
2023-05-02T22:05:35.882Z,100541.01
2023-05-02T22:08:03.806Z,100545.44
2023-05-02T22:10:32.447Z,100545.38
2023-05-02T22:13:00.569Z,100545.78
2023-05-02T22:15:28.366Z,100545.36
2023-05-02T22:17:57.573Z,100547.52
2023-05-02T22:20:26.117Z,100550.41
2023-05-02T22:22:54.632Z,100551.05
2023-05-02T22:25:22.518Z,100553.63
2023-05-02T22:27:50.351Z,100552.33
2023-05-02T22:30:18.236Z,100554.23
2023-05-02T22:32:46.734Z,100553.70
2023-05-02T22:35:14.763Z,100553.92
2023-05-02T22:37:42.424Z,100558.24
2023-05-02T22:40:10.582Z,100564.69
2023-05-02T22:42:38.254Z,100566.86
2023-05-02T22:45:07.755Z,100566.48
2023-05-02T22:47:36.002Z,100566.86
2023-05-02T22:50:04.788Z,100567.09
2023-05-02T22:52:38.062Z,100567.13
2023-05-02T22:55:09.035Z,100564.31
2023-05-02T22:57:37.314Z,100561.54
2023-05-02T23:00:07.137Z,100564.04
2023-05-02T23:02:35.826Z,100561.96
2023-05-02T23:05:04.637Z,100562.23
2023-05-02T23:07:32.718Z,100562.67
2023-05-02T23:10:01.325Z,100563.52
2023-05-02T23:12:29.303Z,100562.48
2023-05-02T23:14:57.132Z,100561.55
2023-05-02T23:17:25.019Z,100560.21
2023-05-02T23:19:52.922Z,100557.02
2023-05-02T23:22:20.900Z,100556.61
2023-05-02T23:24:48.840Z,100555.33
2023-05-02T23:27:16.551Z,100553.55
2023-05-02T23:29:46.233Z,100553.96
2023-05-02T23:32:14.209Z,100549.80
2023-05-02T23:34:42.056Z,100549.38
2023-05-02T23:37:10.441Z,100545.83
2023-05-02T23:39:38.342Z,100543.13
2023-05-02T23:42:06.570Z,100540.15
2023-05-02T23:44:34.571Z,100540.11
2023-05-02T23:47:02.322Z,100537.94
2023-05-02T23:49:30.123Z,100536.59
2023-05-02T23:51:58.302Z,100535.50
2023-05-02T23:54:26.115Z,100536.77
2023-05-02T23:56:54.562Z,100533.63
2023-05-02T23:59:22.651Z,100528.62
